createdAt,value
2022-09-27T00:01:09.860Z,11.1
2022-09-27T00:03:07.488Z,11.1
2022-09-27T00:05:05.062Z,11.1
2022-09-27T00:07:02.843Z,11
2022-09-27T00:09:00.350Z,11
2022-09-27T00:11:05.893Z,11
2022-09-27T00:13:03.509Z,11
2022-09-27T00:15:01.174Z,11.1
2022-09-27T00:16:58.798Z,11.1
2022-09-27T00:20:54.099Z,11.1
2022-09-27T00:22:51.744Z,11.1
2022-09-27T00:24:57.252Z,11
2022-09-27T00:26:54.909Z,11
2022-09-27T00:28:52.550Z,11
2022-09-27T00:30:50.292Z,10.9
2022-09-27T00:36:43.107Z,10.8
2022-09-27T00:38:48.649Z,10.8
2022-09-27T00:40:46.407Z,10.8
2022-09-27T00:42:43.985Z,10.8
2022-09-27T00:47:41.964Z,10.8
2022-09-27T00:49:39.595Z,10.7
2022-09-27T00:51:45.144Z,10.8
2022-09-27T00:55:40.415Z,10.7
2022-09-27T00:57:38.047Z,10.7
2022-09-27T00:59:35.688Z,10.7
2022-09-27T01:03:30.963Z,10.7
2022-09-27T01:05:36.496Z,10.6
2022-09-27T01:07:34.145Z,10.5
2022-09-27T01:09:31.773Z,10.5
2022-09-27T01:11:29.403Z,10.5
2022-09-27T01:13:27.042Z,10.5
2022-09-27T01:15:24.741Z,10.5
2022-09-27T01:17:22.327Z,10.5
2022-09-27T01:19:27.865Z,10.5
2022-09-27T01:21:25.486Z,10.5
2022-09-27T01:23:23.153Z,10.6
2022-09-27T01:25:20.743Z,10.7
2022-09-27T01:27:18.402Z,10.6
2022-09-27T01:29:16.262Z,10.6
2022-09-27T01:31:13.721Z,10.7
2022-09-27T01:33:19.220Z,10.8
2022-09-27T01:35:16.866Z,10.7
2022-09-27T01:37:14.480Z,10.8
2022-09-27T01:38:17.267Z,10.7
2022-09-27T01:40:14.938Z,10.7
2022-09-27T01:42:13.191Z,10.6
2022-09-27T01:44:10.181Z,10.8
2022-09-27T01:46:15.729Z,10.7
2022-09-27T01:48:13.318Z,10.7
2022-09-27T01:50:10.945Z,10.8
2022-09-27T01:52:08.592Z,10.8
2022-09-27T01:56:03.856Z,10.7
2022-09-27T01:58:01.478Z,10.7
2022-09-27T02:05:59.929Z,10.6
2022-09-27T02:07:57.576Z,10.6
2022-09-27T02:09:55.205Z,10.6
2022-09-27T02:11:56.091Z,10.6
2022-09-27T02:19:51.295Z,10.5
2022-09-27T02:21:48.929Z,10.5
2022-09-27T02:23:46.557Z,10.4
2022-09-27T02:25:44.209Z,10.4
2022-09-27T02:27:49.714Z,10.3
2022-09-27T02:29:47.374Z,10.3
2022-09-27T02:36:04.503Z,10.2
2022-09-27T02:38:02.124Z,10.2
2022-09-27T02:40:07.680Z,10.1
2022-09-27T02:42:05.309Z,10.2
2022-09-27T02:44:02.931Z,10.1
2022-09-27T02:46:00.616Z,10
2022-09-27T02:47:58.203Z,10.1
2022-09-27T02:51:53.482Z,10
2022-09-27T02:53:58.995Z,10
2022-09-27T02:55:56.665Z,10
2022-09-27T02:57:54.261Z,9.9
2022-09-27T02:59:51.926Z,9.9
2022-09-27T03:01:49.636Z,9.9
2022-09-27T03:03:47.148Z,9.9
2022-09-27T03:05:44.781Z,9.9
2022-09-27T03:07:50.376Z,9.9
2022-09-27T03:14:06.795Z,9.9
2022-09-27T03:15:40.877Z,9.9
2022-09-27T03:17:38.518Z,9.9
2022-09-27T03:19:36.134Z,9.7
2022-09-27T03:21:41.650Z,9.8
2022-09-27T03:23:39.307Z,9.8
2022-09-27T03:25:36.924Z,9.7
2022-09-27T03:26:39.815Z,9.8
2022-09-27T03:28:37.289Z,9.7
2022-09-27T03:32:32.545Z,9.8
2022-09-27T03:34:38.072Z,9.7
2022-09-27T03:36:35.705Z,9.6
2022-09-27T03:38:33.342Z,9.7
2022-09-27T03:40:31.120Z,9.6
2022-09-27T03:42:28.617Z,9.7
2022-09-27T03:44:26.230Z,9.6
2022-09-27T03:46:23.941Z,9.7
2022-09-27T03:48:29.365Z,9.6
2022-09-27T03:50:27.000Z,9.6
2022-09-27T03:52:24.651Z,9.6
2022-09-27T03:54:22.267Z,9.6
2022-09-27T03:56:19.893Z,9.5
2022-09-27T03:58:17.523Z,9.5
2022-09-27T04:00:15.153Z,9.6
2022-09-27T04:02:20.780Z,9.4
2022-09-27T04:04:18.314Z,9.5
2022-09-27T04:06:17.502Z,9.5
2022-09-27T04:08:15.093Z,9.5
2022-09-27T04:10:12.726Z,9.5
2022-09-27T04:12:10.330Z,9.5
2022-09-27T04:14:07.935Z,9.4
2022-09-27T04:16:13.475Z,9.4
2022-09-27T04:18:11.120Z,9.4
2022-09-27T04:20:08.743Z,9.4
2022-09-27T04:21:11.494Z,9.4
2022-09-27T04:23:09.134Z,9.4
2022-09-27T04:25:06.740Z,9.4
2022-09-27T04:27:04.398Z,9.4
2022-09-27T04:29:09.911Z,9.4
2022-09-27T04:31:07.741Z,9.4
2022-09-27T04:33:05.177Z,9.3
2022-09-27T04:35:02.803Z,9.3
2022-09-27T04:37:00.419Z,9.4
2022-09-27T04:38:58.035Z,9.3
2022-09-27T04:40:55.734Z,9.3
2022-09-27T04:43:01.218Z,9.3
2022-09-27T04:44:58.815Z,9.3
2022-09-27T04:46:56.506Z,9.3
2022-09-27T04:48:54.071Z,9.3
2022-09-27T04:50:51.688Z,9.3
2022-09-27T04:52:49.317Z,9.3
2022-09-27T04:54:46.931Z,9.3
2022-09-27T04:56:52.486Z,9.2
2022-09-27T04:58:50.124Z,9.2
2022-09-27T05:00:47.742Z,9.3
2022-09-27T05:04:42.969Z,9.2
2022-09-27T05:06:40.597Z,9.2
2022-09-27T05:08:38.246Z,9.3
2022-09-27T05:10:43.779Z,9.2
2022-09-27T05:12:41.396Z,9.1
2022-09-27T05:14:39.039Z,9.1
2022-09-27T05:15:41.789Z,9.2
2022-09-27T05:17:39.417Z,9.1
2022-09-27T05:19:37.036Z,9.2
2022-09-27T05:21:34.651Z,9.1
2022-09-27T05:23:42.673Z,9.2
2022-09-27T05:25:37.801Z,9.2
2022-09-27T05:27:35.453Z,9.2
2022-09-27T05:29:33.039Z,9.2
2022-09-27T05:31:30.656Z,9.1
2022-09-27T05:33:28.275Z,9.1
2022-09-27T05:35:25.941Z,9.2
2022-09-27T05:37:31.438Z,9.2
2022-09-27T05:39:29.058Z,9.2
2022-09-27T05:41:26.861Z,9.1
2022-09-27T05:43:24.287Z,9
2022-09-27T05:55:17.939Z,9.1
2022-09-27T05:57:15.564Z,9.1
2022-09-27T05:59:13.171Z,9.1
2022-09-27T06:01:11.012Z,9.1
2022-09-27T06:03:08.456Z,9.1
2022-09-27T06:05:13.940Z,9.2
2022-09-27T06:07:11.573Z,9.1
2022-09-27T06:09:09.206Z,9.1
2022-09-27T06:11:36.168Z,9.2
2022-09-27T06:13:33.792Z,9.2
2022-09-27T06:19:34.569Z,9.3
2022-09-27T06:21:32.319Z,9.3
2022-09-27T06:25:27.454Z,9.5
2022-09-27T06:33:25.839Z,9.6
2022-09-27T06:35:23.457Z,9.6
2022-09-27T06:39:18.703Z,9.7
2022-09-27T06:41:16.331Z,9.8
2022-09-27T06:43:13.968Z,9.8
2022-09-27T06:45:19.503Z,9.9
2022-09-27T06:47:17.300Z,9.8
2022-09-27T06:49:14.755Z,9.7
2022-09-27T06:51:12.378Z,9.9
2022-09-27T06:53:10.027Z,9.8
2022-09-27T06:57:05.285Z,9.9
2022-09-27T07:03:06.072Z,10
2022-09-27T07:04:08.831Z,10.1
2022-09-27T07:06:06.500Z,10.1
2022-09-27T07:08:04.070Z,10.2
2022-09-27T07:10:04.157Z,10.1
2022-09-27T07:12:07.269Z,10.1
2022-09-27T07:14:04.896Z,10.2
2022-09-27T07:16:02.516Z,10.2
2022-09-27T07:21:55.413Z,10.3
2022-09-27T07:23:53.043Z,10.4
2022-09-27T07:25:58.615Z,10.4
2022-09-27T07:27:56.259Z,10.4
2022-09-27T07:29:53.848Z,10.5
2022-09-27T07:33:49.116Z,10.7
2022-09-27T07:37:44.413Z,10.7
2022-09-27T07:41:47.567Z,10.8
2022-09-27T07:43:45.185Z,10.9
2022-09-27T07:45:42.871Z,10.9
2022-09-27T07:57:36.522Z,11
2022-09-27T07:58:39.298Z,10.9
2022-09-27T08:00:36.931Z,11
2022-09-27T08:04:32.206Z,10.9
2022-09-27T08:08:35.388Z,11
2022-09-27T08:10:33.002Z,10.9
2022-09-27T08:12:30.629Z,11
2022-09-27T08:14:28.249Z,11
2022-09-27T08:16:26.623Z,11.2
2022-09-27T08:18:23.533Z,11.3
2022-09-27T08:20:29.101Z,11.5
2022-09-27T08:22:26.740Z,11.5
2022-09-27T08:24:24.363Z,11.5
2022-09-27T08:26:21.991Z,11.5
2022-09-27T08:28:19.611Z,11.5
2022-09-27T08:30:17.251Z,11.6
2022-09-27T08:32:18.255Z,11.7
2022-09-27T08:34:20.398Z,11.9
2022-09-27T08:36:18.020Z,11.9
2022-09-27T08:38:15.667Z,11.9
2022-09-27T08:40:13.354Z,11.9
2022-09-27T08:48:11.740Z,11.7
2022-09-27T08:50:09.379Z,11.5
2022-09-27T08:52:07.029Z,11.5
2022-09-27T08:53:09.805Z,11.5
2022-09-27T08:55:07.580Z,11.6
2022-09-27T08:57:05.071Z,11.5
2022-09-27T08:59:02.699Z,11.5
2022-09-27T09:01:08.802Z,11.5
2022-09-27T09:03:05.862Z,11.5
2022-09-27T09:05:03.516Z,11.3
2022-09-27T09:07:01.164Z,11.4
2022-09-27T09:08:58.810Z,11.5
2022-09-27T09:10:56.445Z,11.3
2022-09-27T09:12:54.079Z,11.5
2022-09-27T09:14:59.633Z,11.6
2022-09-27T09:16:57.255Z,11.6
2022-09-27T09:26:45.432Z,12.1
2022-09-27T09:28:50.965Z,12
2022-09-27T09:30:48.649Z,12.1
2022-09-27T09:32:46.308Z,12.1
2022-09-27T09:34:43.891Z,12.1
2022-09-27T09:36:41.519Z,12.1
2022-09-27T09:38:39.144Z,12.1
2022-09-27T09:40:36.833Z,12.2
2022-09-27T09:42:42.376Z,12
2022-09-27T09:44:40.015Z,11.9
2022-09-27T09:46:39.368Z,11.9
2022-09-27T09:49:06.147Z,12
2022-09-27T09:51:03.803Z,12
2022-09-27T09:53:01.444Z,12.1
2022-09-27T09:55:07.017Z,12.2
2022-09-27T09:57:04.663Z,12.2
2022-09-27T09:59:02.280Z,12.3
2022-09-27T10:00:59.933Z,12.2
2022-09-27T10:02:57.551Z,12.3
2022-09-27T10:04:55.172Z,12.4
2022-09-27T10:06:52.834Z,12.3
2022-09-27T10:08:58.394Z,12.4
2022-09-27T10:10:56.052Z,12.4
2022-09-27T10:12:53.665Z,12.4
2022-09-27T10:14:51.324Z,12.5
2022-09-27T10:16:48.974Z,12.6
2022-09-27T10:22:49.836Z,12.5
2022-09-27T10:24:47.455Z,12.6
2022-09-27T10:26:45.099Z,12.5
2022-09-27T10:28:42.704Z,12.5
2022-09-27T10:30:40.336Z,12.6
2022-09-27T10:32:37.967Z,12.6
2022-09-27T10:34:35.603Z,12.5
2022-09-27T10:38:38.787Z,12.5
2022-09-27T10:41:39.213Z,12.3
2022-09-27T10:43:36.864Z,12.3
2022-09-27T10:45:34.569Z,12.4
2022-09-27T10:47:32.136Z,12.4
2022-09-27T10:49:37.661Z,12.3
2022-09-27T10:55:30.594Z,12.5
2022-09-27T10:57:28.248Z,12.4
2022-09-27T10:59:25.879Z,12.4
2022-09-27T11:01:23.556Z,12.5
2022-09-27T11:03:29.147Z,12.4
2022-09-27T11:05:26.719Z,12.5
2022-09-27T11:11:19.655Z,12.3
2022-09-27T11:13:17.308Z,12.4
2022-09-27T11:15:14.933Z,12.4
2022-09-27T11:17:20.523Z,12.4
2022-09-27T11:19:18.155Z,12.4
2022-09-27T11:21:15.779Z,12.4
2022-09-27T11:23:13.407Z,12.2
2022-09-27T11:25:11.057Z,12.2
2022-09-27T11:27:08.707Z,12.2
2022-09-27T11:29:06.336Z,12.3
2022-09-27T11:31:14.366Z,12.3
2022-09-27T11:33:09.557Z,12.3
2022-09-27T11:35:07.209Z,12.2
2022-09-27T11:36:10.004Z,12.2
2022-09-27T11:38:07.610Z,12.4
2022-09-27T11:42:02.887Z,12.3
2022-09-27T11:44:08.439Z,12.4
2022-09-27T11:48:03.914Z,12.4
2022-09-27T11:51:59.009Z,12.6
2022-09-27T11:55:54.283Z,12.6
2022-09-27T11:57:59.826Z,12.8
2022-09-27T11:59:57.436Z,12.7
2022-09-27T12:01:55.140Z,12.8
2022-09-27T12:03:52.694Z,12.8
2022-09-27T12:05:57.791Z,12.8
2022-09-27T12:13:48.813Z,12.4
2022-09-27T12:17:44.081Z,12.9
2022-09-27T12:19:41.719Z,12.9
2022-09-27T12:21:39.343Z,12.9
2022-09-27T12:23:36.998Z,12.9
2022-09-27T12:30:40.595Z,12.9
2022-09-27T12:32:38.243Z,12.8
2022-09-27T12:34:35.907Z,12.7
2022-09-27T12:36:37.469Z,12.8
2022-09-27T12:38:39.093Z,12.8
2022-09-27T12:42:34.349Z,12.7
2022-09-27T12:44:31.977Z,12.7
2022-09-27T12:48:27.261Z,12.7
2022-09-27T12:50:25.129Z,12.8
2022-09-27T12:52:30.395Z,12.7
2022-09-27T12:54:28.048Z,12.7
2022-09-27T12:56:25.662Z,12.6
2022-09-27T12:58:23.307Z,12.7
2022-09-27T13:00:20.978Z,12.7
2022-09-27T13:02:18.635Z,12.8
2022-09-27T13:04:16.229Z,12.9
2022-09-27T13:06:21.785Z,12.8
2022-09-27T13:08:19.429Z,12.7
2022-09-27T13:10:17.043Z,12.7
2022-09-27T13:14:12.367Z,12.7
2022-09-27T13:18:07.601Z,12.6
2022-09-27T13:20:13.171Z,12.6
2022-09-27T13:24:08.431Z,12.5
2022-09-27T13:26:25.481Z,12.4
2022-09-27T13:28:23.112Z,12.5
2022-09-27T13:30:20.741Z,12.4
2022-09-27T13:32:26.291Z,12.4
2022-09-27T13:34:23.914Z,12.5
2022-09-27T13:36:21.703Z,12.4
2022-09-27T13:38:19.232Z,12.4
2022-09-27T13:40:16.917Z,12.5
2022-09-27T13:42:14.446Z,12.4
2022-09-27T13:46:17.686Z,12.2
2022-09-27T13:48:15.259Z,12.2
2022-09-27T13:50:12.891Z,12.2
2022-09-27T13:52:10.530Z,12.1
2022-09-27T13:54:10.808Z,12.2
2022-09-27T13:56:05.812Z,12
2022-09-27T13:58:03.424Z,12.1
2022-09-27T14:00:09.022Z,12
2022-09-27T14:06:05.418Z,11.9
2022-09-27T14:07:59.572Z,11.8
2022-09-27T14:09:57.171Z,11.9
2022-09-27T14:11:54.830Z,11.9
2022-09-27T14:14:00.393Z,11.8
2022-09-27T14:15:58.066Z,11.9
2022-09-27T14:17:55.663Z,11.9
2022-09-27T14:18:58.463Z,11.9
2022-09-27T14:20:56.054Z,11.9
2022-09-27T14:22:53.690Z,11.8
2022-09-27T14:24:51.314Z,11.7
2022-09-27T14:26:56.899Z,11.8
2022-09-27T14:28:54.497Z,11.8
2022-09-27T14:30:52.163Z,11.8
2022-09-27T14:32:49.773Z,12
2022-09-27T14:34:47.383Z,12
2022-09-27T14:36:45.000Z,12
2022-09-27T14:40:48.354Z,12.1
2022-09-27T14:44:43.476Z,12.1
2022-09-27T14:46:41.148Z,12.1
2022-09-27T14:48:38.745Z,12.2
2022-09-27T14:50:36.413Z,12.2
2022-09-27T14:52:34.044Z,12.1
2022-09-27T14:54:39.594Z,12
2022-09-27T14:56:37.216Z,12.1
2022-09-27T14:58:47.511Z,12
2022-09-27T15:00:32.500Z,12
2022-09-27T15:02:30.164Z,12
2022-09-27T15:04:27.975Z,12
2022-09-27T15:06:25.438Z,12.1
2022-09-27T15:08:31.025Z,12
2022-09-27T15:10:28.627Z,12.1
2022-09-27T15:12:26.270Z,12.1
2022-09-27T15:13:29.062Z,12
2022-09-27T15:15:26.692Z,12.1
2022-09-27T15:17:24.351Z,12
2022-09-27T15:19:21.981Z,11.9
2022-09-27T15:21:27.546Z,11.9
2022-09-27T15:23:25.178Z,12
2022-09-27T15:25:22.793Z,12
2022-09-27T15:27:20.405Z,12.1
2022-09-27T15:29:19.617Z,12
2022-09-27T15:31:17.309Z,12
2022-09-27T15:35:20.369Z,11.9
2022-09-27T15:41:13.310Z,11.9
2022-09-27T15:43:10.901Z,12
2022-09-27T15:47:06.188Z,12
2022-09-27T15:49:11.799Z,11.9
2022-09-27T15:51:09.408Z,12
2022-09-27T15:53:07.134Z,11.8
2022-09-27T15:55:04.692Z,11.8
2022-09-27T15:57:02.270Z,11.8
2022-09-27T15:58:59.889Z,11.9
2022-09-27T16:00:57.668Z,11.9
2022-09-27T16:03:03.111Z,11.7
2022-09-27T16:05:00.759Z,11.8
2022-09-27T16:06:58.381Z,11.7
2022-09-27T16:08:01.168Z,11.7
2022-09-27T16:09:58.794Z,11.6
2022-09-27T16:11:56.412Z,11.7
2022-09-27T16:13:54.081Z,11.8
2022-09-27T16:15:59.734Z,11.7
2022-09-27T16:17:57.228Z,11.7
2022-09-27T16:19:54.864Z,11.7
2022-09-27T16:25:47.776Z,11.5
2022-09-27T16:31:48.653Z,11.5
2022-09-27T16:33:46.249Z,11.4
2022-09-27T16:35:43.850Z,11.4
2022-09-27T16:41:36.761Z,11.4
2022-09-27T16:43:42.300Z,11.3
2022-09-27T16:45:39.974Z,11.4
2022-09-27T16:47:37.588Z,11.4
2022-09-27T16:49:35.203Z,11.3
2022-09-27T16:51:32.849Z,11.2
2022-09-27T16:53:30.463Z,11.2
2022-09-27T16:55:28.164Z,11.2
2022-09-27T16:57:33.673Z,11.2
2022-09-27T16:59:31.316Z,11.3
2022-09-27T17:01:28.954Z,11.3
2022-09-27T17:03:57.663Z,11.2
2022-09-27T17:05:53.540Z,11.2
2022-09-27T17:07:51.171Z,11.2
2022-09-27T17:09:56.737Z,11.1
2022-09-27T17:11:54.364Z,11.2
2022-09-27T17:13:52.010Z,11.1
2022-09-27T17:15:49.725Z,11.2
2022-09-27T17:17:47.293Z,11.3
2022-09-27T17:19:44.931Z,11.2
2022-09-27T17:21:42.574Z,11.2
2022-09-27T17:23:48.119Z,11.1
2022-09-27T17:25:45.743Z,11.2
2022-09-27T17:27:43.389Z,11.2
2022-09-27T17:29:41.024Z,11.1
2022-09-27T17:33:36.297Z,11.1
2022-09-27T17:35:33.911Z,11.1
2022-09-27T17:37:39.462Z,11.2
2022-09-27T17:39:37.089Z,11.2
2022-09-27T17:43:32.372Z,11.2
2022-09-27T17:45:30.183Z,11.2
2022-09-27T17:47:27.648Z,11.2
2022-09-27T17:49:25.294Z,11.2
2022-09-27T17:51:30.833Z,11.1
2022-09-27T17:53:29.654Z,11.2
2022-09-27T17:55:26.151Z,11.1
2022-09-27T17:56:28.897Z,11.2
2022-09-27T17:58:26.546Z,11.2
2022-09-27T18:00:24.162Z,11.1
2022-09-27T18:02:21.904Z,11.1
2022-09-27T18:04:27.384Z,11.1
2022-09-27T18:06:24.987Z,11.1
2022-09-27T18:08:22.640Z,11.1
2022-09-27T18:10:20.484Z,11
2022-09-27T18:12:17.893Z,11.1
2022-09-27T18:20:16.325Z,11
2022-09-27T18:22:13.962Z,11
2022-09-27T18:24:11.594Z,11
2022-09-27T18:26:09.242Z,10.9
2022-09-27T18:28:06.914Z,10.9
2022-09-27T18:30:04.559Z,11
2022-09-27T18:33:15.641Z,11
2022-09-27T18:34:07.713Z,11
2022-09-27T18:36:05.365Z,10.9
2022-09-27T18:38:03.046Z,11
2022-09-27T18:40:00.626Z,10.9
2022-09-27T18:41:58.246Z,10.8
2022-09-27T18:43:55.879Z,10.9
2022-09-27T18:46:17.785Z,10.8
2022-09-27T18:50:59.456Z,10.7
2022-09-27T18:52:57.055Z,10.7
2022-09-27T18:54:54.695Z,10.8
2022-09-27T18:56:52.423Z,10.7
2022-09-27T18:58:57.872Z,10.6
2022-09-27T19:00:55.628Z,10.6
2022-09-27T19:02:53.137Z,10.6
2022-09-27T19:04:50.777Z,10.6
2022-09-27T19:08:46.057Z,10.6
2022-09-27T19:10:43.707Z,10.6
2022-09-27T19:12:49.241Z,10.6
2022-09-27T19:14:46.879Z,10.6
2022-09-27T19:16:44.490Z,10.6
2022-09-27T19:22:37.414Z,10.5
2022-09-27T19:24:35.023Z,10.5
2022-09-27T19:26:40.589Z,10.4
2022-09-27T19:28:38.204Z,10.5
2022-09-27T19:30:35.856Z,10.5
2022-09-27T19:32:33.520Z,10.3
2022-09-27T19:34:31.122Z,10.4
2022-09-27T19:36:28.758Z,10.3
2022-09-27T19:38:26.413Z,10.2
2022-09-27T19:40:32.081Z,10.2
2022-09-27T19:42:29.544Z,10.3
2022-09-27T19:44:27.178Z,10.3
2022-09-27T19:49:25.225Z,10.2
2022-09-27T19:51:22.840Z,10.3
2022-09-27T19:53:31.843Z,10.2
2022-09-27T19:55:26.034Z,10.2
2022-09-27T19:57:23.637Z,10.3
2022-09-27T19:59:21.269Z,10.2
2022-09-27T20:01:19.231Z,10.3
2022-09-27T20:03:16.597Z,10.2
2022-09-27T20:05:14.181Z,10.3
2022-09-27T20:07:19.710Z,10.2
2022-09-27T20:09:17.480Z,10.3
2022-09-27T20:11:15.000Z,10.2
2022-09-27T20:13:12.609Z,10.2
2022-09-27T20:15:10.209Z,10.2
2022-09-27T20:17:07.824Z,10.3
2022-09-27T20:19:05.471Z,10.2
2022-09-27T20:21:10.999Z,10.2
2022-09-27T20:23:08.639Z,10.2
2022-09-27T20:25:06.251Z,10.2
2022-09-27T20:27:03.935Z,10.1
2022-09-27T20:29:01.545Z,10.1
2022-09-27T20:30:59.235Z,10.1
2022-09-27T20:35:02.415Z,10.2
2022-09-27T20:36:59.962Z,10.1
2022-09-27T20:41:21.008Z,10.1
2022-09-27T20:47:21.820Z,10.1
2022-09-27T20:49:19.420Z,10.1
2022-09-27T20:53:14.692Z,10.2
2022-09-27T20:55:12.335Z,10.1
2022-09-27T20:57:09.954Z,10.2
2022-09-27T20:59:10.463Z,10.1
2022-09-27T21:01:13.182Z,10.1
2022-09-27T21:03:10.736Z,10.1
2022-09-27T21:05:08.370Z,10.1
2022-09-27T21:07:06.004Z,10
2022-09-27T21:09:03.638Z,10.2
2022-09-27T21:11:02.867Z,10
2022-09-27T21:13:00.430Z,10.1
2022-09-27T21:15:05.983Z,10
2022-09-27T21:17:03.597Z,10.1
2022-09-27T21:19:01.237Z,10.1
2022-09-27T21:20:58.895Z,10.1
2022-09-27T21:22:56.529Z,10.1
2022-09-27T21:24:54.155Z,10
2022-09-27T21:26:51.796Z,10.1
2022-09-27T21:28:57.353Z,9.9
2022-09-27T21:30:54.989Z,10
2022-09-27T21:32:52.605Z,10.1
2022-09-27T21:35:53.013Z,10.1
2022-09-27T21:37:50.656Z,10.1
2022-09-27T21:39:48.278Z,10.1
2022-09-27T21:41:53.817Z,10
2022-09-27T21:43:51.437Z,10.1
2022-09-27T21:45:49.069Z,10.2
2022-09-27T21:47:46.704Z,10.1
2022-09-27T21:49:44.321Z,10.1
2022-09-27T21:51:41.945Z,10
2022-09-27T21:55:45.122Z,10
2022-09-27T21:57:42.740Z,9.9
2022-09-27T21:59:40.382Z,10
2022-09-27T22:03:35.629Z,9.8
2022-09-27T22:05:33.345Z,9.8
2022-09-27T22:07:30.938Z,9.8
2022-09-27T22:09:36.470Z,9.9
2022-09-27T22:11:34.096Z,9.9
2022-09-27T22:13:31.723Z,9.9
2022-09-27T22:15:29.351Z,9.8
2022-09-27T22:17:27.040Z,9.9
2022-09-27T22:19:24.641Z,9.8
2022-09-27T22:21:22.301Z,9.9
2022-09-27T22:23:27.822Z,9.8
2022-09-27T22:25:25.444Z,9.7
2022-09-27T22:27:23.095Z,9.7
2022-09-27T22:30:23.512Z,9.6
2022-09-27T22:34:19.051Z,9.7
2022-09-27T22:38:21.920Z,9.6
2022-09-27T22:40:19.569Z,9.6
2022-09-27T22:44:14.813Z,9.7
2022-09-27T22:46:12.487Z,9.6
2022-09-27T22:48:10.060Z,9.6
2022-09-27T22:50:15.583Z,9.6
2022-09-27T22:52:13.238Z,9.5
2022-09-27T22:54:10.834Z,9.6
2022-09-27T22:56:08.471Z,9.6
2022-09-27T22:58:06.257Z,9.6
2022-09-27T23:00:03.756Z,9.6
2022-09-27T23:02:01.337Z,9.4
2022-09-27T23:04:06.888Z,9.4
2022-09-27T23:06:04.455Z,9.5
2022-09-27T23:08:02.097Z,9.4
2022-09-27T23:09:59.713Z,9.4
2022-09-27T23:11:57.334Z,9.3
2022-09-27T23:13:54.967Z,9.4
2022-09-27T23:15:52.651Z,9.3
2022-09-27T23:19:55.783Z,9.3
2022-09-27T23:21:53.410Z,9.2
2022-09-27T23:22:56.191Z,9.3
2022-09-27T23:24:53.802Z,9.3
2022-09-27T23:26:51.396Z,9.3
2022-09-27T23:28:49.016Z,9.3
2022-09-27T23:30:54.570Z,9.2
2022-09-27T23:32:52.178Z,9.2
2022-09-27T23:34:49.789Z,9.2
2022-09-27T23:36:47.430Z,9.3
2022-09-27T23:38:45.053Z,9.3
2022-09-27T23:40:42.760Z,9.1
2022-09-27T23:42:40.291Z,9.2
2022-09-27T23:44:45.828Z,9.2
2022-09-27T23:46:43.512Z,9.2
2022-09-27T23:48:41.086Z,9.2
2022-09-27T23:50:38.695Z,9.2
2022-09-27T23:52:36.327Z,9.1
2022-09-27T23:54:33.950Z,9.2
2022-09-27T23:58:37.064Z,9.1
